createdAt,value
2022-08-23T00:01:24.328Z,95.21
2022-08-23T00:03:52.049Z,96.11
2022-08-23T00:06:19.242Z,96.95
2022-08-23T00:08:48.576Z,97.12
2022-08-23T00:11:32.149Z,97.60
2022-08-23T00:14:03.289Z,97.15
2022-08-23T00:16:29.776Z,97.02
2022-08-23T00:18:56.597Z,96.52
2022-08-23T00:21:23.542Z,95.78
2022-08-23T00:23:50.004Z,96.13
2022-08-23T00:26:17.889Z,95.63
2022-08-23T00:28:44.352Z,95.85
2022-08-23T00:31:10.853Z,95.94
2022-08-23T00:33:37.328Z,96.33
2022-08-23T00:36:03.996Z,95.69
2022-08-23T00:38:33.027Z,95.92
2022-08-23T00:41:01.144Z,97.23
2022-08-23T00:43:49.119Z,96.51
2022-08-23T00:46:46.069Z,96.92
2022-08-23T00:49:15.862Z,96.48
2022-08-23T00:51:53.127Z,96.29
2022-08-23T00:54:21.990Z,96.07
2022-08-23T00:56:49.893Z,95.90
2022-08-23T00:59:16.363Z,96.24
2022-08-23T01:01:44.143Z,96.26
2022-08-23T01:04:12.913Z,96.99
2022-08-23T01:06:54.960Z,97.08
2022-08-23T01:09:22.304Z,97.15
2022-08-23T01:12:01.335Z,97.20
2022-08-23T01:14:31.242Z,97.48
2022-08-23T01:17:30.616Z,97.72
2022-08-23T01:20:01.487Z,97.80
2022-08-23T01:22:57.351Z,97.93
2022-08-23T01:25:26.136Z,97.95
2022-08-23T01:27:52.904Z,98.33
2022-08-23T01:30:23.843Z,98.63
2022-08-23T01:32:56.940Z,99.41
2022-08-23T01:35:31.295Z,99.77
2022-08-23T01:37:57.817Z,100.00
2022-08-23T01:40:24.496Z,100.00
2022-08-23T01:42:51.017Z,100.00
2022-08-23T01:45:17.621Z,100.00
2022-08-23T01:47:44.122Z,100.00
2022-08-23T01:50:12.998Z,100.00
2022-08-23T01:52:47.068Z,100.00
2022-08-23T01:55:14.622Z,100.00
2022-08-23T01:57:43.207Z,100.00
2022-08-23T02:00:13.719Z,100.00
2022-08-23T02:02:41.452Z,100.00
2022-08-23T02:05:09.471Z,100.00
2022-08-23T02:07:36.234Z,100.00
2022-08-23T02:10:02.897Z,100.00
2022-08-23T02:12:29.864Z,100.00
2022-08-23T02:14:56.725Z,100.00
2022-08-23T02:17:23.229Z,100.00
2022-08-23T02:19:50.719Z,100.00
2022-08-23T02:22:17.423Z,100.00
2022-08-23T02:24:46.339Z,100.00
2022-08-23T02:27:15.303Z,100.00
2022-08-23T02:32:15.235Z,100.00
2022-08-23T02:34:43.000Z,100.00
2022-08-23T02:37:11.058Z,100.00
2022-08-23T02:39:38.880Z,100.00
2022-08-23T02:42:06.944Z,100.00
2022-08-23T02:44:34.722Z,100.00
2022-08-23T02:47:02.313Z,100.00
2022-08-23T02:49:29.422Z,100.00
2022-08-23T02:51:56.522Z,100.00
2022-08-23T02:54:23.393Z,100.00
2022-08-23T02:56:49.952Z,100.00
2022-08-23T02:59:16.390Z,100.00
2022-08-23T03:01:43.083Z,100.00
2022-08-23T03:04:10.706Z,100.00
2022-08-23T03:06:38.435Z,100.00
2022-08-23T03:09:07.195Z,100.00
2022-08-23T03:11:34.180Z,100.00
2022-08-23T03:14:01.274Z,100.00
2022-08-23T03:16:28.677Z,100.00
2022-08-23T03:18:55.264Z,100.00
2022-08-23T03:21:22.421Z,100.00
2022-08-23T03:23:49.129Z,100.00
2022-08-23T03:26:16.128Z,100.00
2022-08-23T03:28:44.219Z,100.00
2022-08-23T03:31:11.333Z,100.00
2022-08-23T03:33:38.389Z,100.00
2022-08-23T03:36:07.519Z,100.00
2022-08-23T03:38:34.434Z,100.00
2022-08-23T03:41:01.614Z,100.00
2022-08-23T03:43:28.363Z,100.00
2022-08-23T03:45:54.846Z,100.00
2022-08-23T03:48:21.765Z,100.00
2022-08-23T03:50:48.307Z,100.00
2022-08-23T03:53:14.923Z,100.00
2022-08-23T03:55:43.034Z,100.00
2022-08-23T03:58:11.225Z,100.00
2022-08-23T04:00:38.662Z,100.00
2022-08-23T04:03:05.484Z,100.00
2022-08-23T04:05:32.016Z,100.00
2022-08-23T04:07:58.990Z,100.00
2022-08-23T04:10:25.826Z,100.00
2022-08-23T04:12:54.751Z,100.00
2022-08-23T04:15:21.361Z,100.00
2022-08-23T04:17:47.858Z,100.00
2022-08-23T04:20:14.505Z,100.00
2022-08-23T04:22:41.021Z,100.00
2022-08-23T04:25:32.986Z,100.00
2022-08-23T04:27:54.837Z,100.00
2022-08-23T04:30:21.475Z,100.00
2022-08-23T04:32:48.286Z,100.00
2022-08-23T04:35:15.861Z,100.00
2022-08-23T04:37:42.634Z,100.00
2022-08-23T04:40:29.619Z,100.00
2022-08-23T04:42:56.413Z,100.00
2022-08-23T04:45:23.193Z,100.00
2022-08-23T04:47:49.798Z,100.00
2022-08-23T04:50:16.883Z,100.00
2022-08-23T04:52:43.441Z,100.00
2022-08-23T04:55:10.018Z,100.00
2022-08-23T04:57:36.618Z,100.00
2022-08-23T05:00:04.422Z,100.00
2022-08-23T05:02:30.877Z,100.00
2022-08-23T05:04:57.415Z,100.00
2022-08-23T05:07:31.024Z,100.00
2022-08-23T05:10:13.429Z,100.00
2022-08-23T05:12:40.455Z,100.00
2022-08-23T05:15:08.789Z,100.00
2022-08-23T05:17:36.377Z,100.00
2022-08-23T05:20:05.099Z,100.00
2022-08-23T05:22:38.198Z,100.00
2022-08-23T05:25:05.452Z,100.00
2022-08-23T05:27:31.944Z,100.00
2022-08-23T05:29:58.441Z,100.00
2022-08-23T05:32:25.124Z,100.00
2022-08-23T05:34:51.621Z,100.00
2022-08-23T05:37:18.669Z,100.00
2022-08-23T05:39:45.226Z,100.00
2022-08-23T05:42:14.628Z,100.00
2022-08-23T05:44:41.650Z,100.00
2022-08-23T05:47:12.327Z,100.00
2022-08-23T05:49:39.579Z,100.00
2022-08-23T05:52:08.189Z,100.00
2022-08-23T05:54:35.979Z,100.00
2022-08-23T05:57:02.496Z,100.00
2022-08-23T05:59:29.184Z,100.00
2022-08-23T06:01:56.458Z,100.00
2022-08-23T06:04:23.345Z,100.00
2022-08-23T06:06:49.810Z,100.00
2022-08-23T06:09:18.206Z,100.00
2022-08-23T06:11:46.644Z,100.00
2022-08-23T06:14:14.524Z,100.00
2022-08-23T06:16:44.070Z,100.00
2022-08-23T06:19:11.389Z,100.00
2022-08-23T06:21:38.580Z,100.00
2022-08-23T06:24:07.064Z,100.00
2022-08-23T06:26:36.898Z,100.00
2022-08-23T06:29:07.216Z,100.00
2022-08-23T06:31:49.249Z,100.00
2022-08-23T06:34:23.254Z,100.00
2022-08-23T06:36:52.847Z,100.00
2022-08-23T06:39:21.499Z,100.00
2022-08-23T06:41:51.163Z,100.00
2022-08-23T06:44:18.518Z,100.00
2022-08-23T06:46:47.922Z,100.00
2022-08-23T06:49:14.987Z,100.00
2022-08-23T06:51:46.210Z,100.00
2022-08-23T06:54:14.494Z,100.00
2022-08-23T06:56:42.599Z,100.00
2022-08-23T06:59:09.425Z,100.00
2022-08-23T07:01:47.373Z,100.00
2022-08-23T07:04:20.374Z,100.00
2022-08-23T07:06:47.211Z,100.00
2022-08-23T07:09:13.884Z,100.00
2022-08-23T07:11:41.498Z,100.00
2022-08-23T07:14:11.182Z,100.00
2022-08-23T07:16:42.212Z,100.00
2022-08-23T07:19:09.190Z,100.00
2022-08-23T07:21:36.574Z,100.00
2022-08-23T07:24:03.919Z,100.00
2022-08-23T07:26:31.313Z,100.00
2022-08-23T07:28:58.163Z,100.00
2022-08-23T07:31:28.399Z,100.00
2022-08-23T07:33:58.788Z,100.00
2022-08-23T07:36:28.359Z,100.00
2022-08-23T07:38:56.206Z,100.00
2022-08-23T07:41:24.759Z,100.00
2022-08-23T07:43:51.325Z,100.00
2022-08-23T07:46:18.283Z,100.00
2022-08-23T07:48:53.835Z,100.00
2022-08-23T07:51:20.808Z,100.00
2022-08-23T07:53:47.971Z,100.00
2022-08-23T07:56:16.440Z,99.32
2022-08-23T07:58:43.037Z,98.23
2022-08-23T08:01:12.540Z,98.75
2022-08-23T08:03:39.805Z,99.38
2022-08-23T08:06:12.576Z,99.63
2022-08-23T08:08:41.132Z,99.10
2022-08-23T08:11:09.308Z,97.62
2022-08-23T08:13:38.671Z,96.63
2022-08-23T08:16:05.500Z,95.90
2022-08-23T08:18:32.262Z,95.85
2022-08-23T08:20:58.964Z,94.73
2022-08-23T08:23:25.638Z,94.54
2022-08-23T08:26:06.317Z,93.03
2022-08-23T08:28:33.899Z,93.83
2022-08-23T08:31:00.456Z,92.54
2022-08-23T08:33:30.728Z,92.51
2022-08-23T08:35:59.278Z,91.20
2022-08-23T08:38:30.578Z,88.93
2022-08-23T08:41:03.414Z,89.67
2022-08-23T08:43:58.714Z,89.08
2022-08-23T08:46:47.616Z,88.05
2022-08-23T08:49:31.985Z,87.40
2022-08-23T08:52:10.750Z,89.34
2022-08-23T08:54:38.724Z,86.35
2022-08-23T08:57:08.969Z,87.18
2022-08-23T08:59:51.351Z,86.84
2022-08-23T09:02:32.872Z,87.46
2022-08-23T09:05:08.261Z,84.71
2022-08-23T09:07:47.619Z,83.94
2022-08-23T09:10:20.129Z,83.75
2022-08-23T09:12:59.244Z,83.06
2022-08-23T09:15:36.357Z,84.33
2022-08-23T09:18:15.825Z,82.71
2022-08-23T09:20:44.084Z,80.37
2022-08-23T09:23:27.298Z,78.62
2022-08-23T09:25:59.870Z,80.93
2022-08-23T09:28:33.878Z,78.73
2022-08-23T09:31:00.651Z,77.85
2022-08-23T09:33:45.978Z,76.93
2022-08-23T09:36:15.541Z,77.96
2022-08-23T09:39:01.580Z,76.00
2022-08-23T09:41:43.624Z,76.14
2022-08-23T09:44:16.810Z,76.26
2022-08-23T09:46:43.431Z,77.87
2022-08-23T09:49:28.625Z,76.43
2022-08-23T09:51:58.816Z,76.28
2022-08-23T09:54:30.970Z,73.80
2022-08-23T09:57:04.369Z,74.04
2022-08-23T09:59:34.700Z,72.58
2022-08-23T10:02:02.276Z,72.95
2022-08-23T10:04:29.081Z,72.68
2022-08-23T10:06:56.317Z,73.17
2022-08-23T10:09:32.736Z,71.14
2022-08-23T10:12:02.353Z,69.81
2022-08-23T10:14:31.161Z,71.91
2022-08-23T10:17:00.492Z,71.75
2022-08-23T10:19:44.678Z,69.28
2022-08-23T10:22:53.165Z,68.94
2022-08-23T10:25:24.785Z,66.65
2022-08-23T10:28:39.594Z,65.29
2022-08-23T10:31:12.003Z,64.48
2022-08-23T10:34:02.127Z,62.15
2022-08-23T10:36:38.623Z,64.48
2022-08-23T10:39:19.682Z,62.16
2022-08-23T10:42:31.690Z,61.89
2022-08-23T10:45:16.924Z,64.07
2022-08-23T10:48:04.181Z,59.84
2022-08-23T10:50:42.442Z,61.88
2022-08-23T10:53:15.856Z,60.47
2022-08-23T10:56:02.845Z,59.28
2022-08-23T10:58:58.267Z,60.01
2022-08-23T11:01:34.753Z,59.20
2022-08-23T11:04:06.114Z,56.32
2022-08-23T11:06:35.361Z,58.71
2022-08-23T11:09:21.740Z,57.56
2022-08-23T11:12:11.254Z,55.98
2022-08-23T11:15:03.556Z,56.38
2022-08-23T11:17:43.818Z,55.07
2022-08-23T11:20:12.497Z,48.90
2022-08-23T11:22:57.324Z,50.50
2022-08-23T11:25:23.752Z,52.20
2022-08-23T11:27:50.273Z,52.11
2022-08-23T11:30:34.981Z,51.29
2022-08-23T11:33:16.666Z,50.49
2022-08-23T11:36:09.092Z,48.13
2022-08-23T11:38:47.796Z,46.15
2022-08-23T11:41:20.349Z,47.92
2022-08-23T11:44:10.583Z,47.42
2022-08-23T11:46:48.286Z,44.53
2022-08-23T11:49:20.913Z,40.66
2022-08-23T11:52:02.625Z,41.31
2022-08-23T11:54:55.700Z,39.24
2022-08-23T11:57:43.732Z,39.88
2022-08-23T12:00:29.417Z,43.97
2022-08-23T12:03:17.184Z,45.58
2022-08-23T12:05:52.511Z,46.74
2022-08-23T12:08:23.103Z,45.73
2022-08-23T12:10:51.088Z,47.52
2022-08-23T12:13:20.855Z,48.11
2022-08-23T12:16:17.515Z,47.12
2022-08-23T12:18:47.750Z,44.52
2022-08-23T12:21:26.584Z,45.07
2022-08-23T12:24:13.586Z,45.11
2022-08-23T12:26:42.774Z,42.49
2022-08-23T12:29:09.165Z,43.03
2022-08-23T12:31:43.127Z,42.70
2022-08-23T12:34:32.999Z,43.89
2022-08-23T12:37:12.920Z,43.05
2022-08-23T12:39:50.128Z,42.10
2022-08-23T12:42:24.981Z,43.41
2022-08-23T12:45:12.950Z,42.90
2022-08-23T12:47:43.266Z,44.74
2022-08-23T12:50:15.900Z,43.20
2022-08-23T12:52:42.515Z,42.79
2022-08-23T12:55:19.433Z,42.91
2022-08-23T12:57:55.121Z,41.77
2022-08-23T13:00:33.954Z,43.70
2022-08-23T13:03:13.849Z,44.57
2022-08-23T13:06:08.699Z,43.80
2022-08-23T13:08:39.883Z,43.46
2022-08-23T13:11:08.931Z,44.50
2022-08-23T13:13:38.638Z,44.36
2022-08-23T13:16:41.337Z,44.76
2022-08-23T13:19:19.218Z,44.04
2022-08-23T13:21:45.758Z,44.09
2022-08-23T13:24:37.760Z,44.01
2022-08-23T13:27:27.256Z,44.56
2022-08-23T13:30:09.085Z,45.35
2022-08-23T13:32:45.237Z,43.73
2022-08-23T13:35:32.195Z,43.65
2022-08-23T13:38:08.330Z,44.46
2022-08-23T13:40:59.264Z,44.20
2022-08-23T13:43:31.515Z,43.64
2022-08-23T13:46:09.219Z,44.07
2022-08-23T13:48:37.545Z,44.37
2022-08-23T13:51:40.737Z,42.12
2022-08-23T13:54:10.849Z,43.55
2022-08-23T13:56:42.414Z,42.31
2022-08-23T13:59:22.594Z,47.14
2022-08-23T14:01:52.505Z,42.07
2022-08-23T14:04:19.017Z,42.45
2022-08-23T14:06:48.694Z,38.64
2022-08-23T14:09:16.749Z,40.04
2022-08-23T14:11:43.789Z,40.78
2022-08-23T14:14:12.482Z,41.73
2022-08-23T14:16:40.174Z,40.28
2022-08-23T14:19:16.498Z,39.97
2022-08-23T14:21:46.779Z,39.37
2022-08-23T14:24:13.551Z,38.89
2022-08-23T14:26:51.733Z,40.43
2022-08-23T14:29:22.294Z,40.21
2022-08-23T14:31:50.791Z,39.90
2022-08-23T14:34:17.679Z,39.46
2022-08-23T14:38:00.235Z,39.83
2022-08-23T14:39:31.153Z,39.23
2022-08-23T14:41:58.282Z,39.44
2022-08-23T14:44:28.978Z,39.05
2022-08-23T14:46:56.848Z,39.34
2022-08-23T14:49:23.580Z,39.13
2022-08-23T14:51:51.132Z,39.55
2022-08-23T14:54:22.016Z,38.27
2022-08-23T14:56:51.735Z,39.21
2022-08-23T14:59:18.325Z,38.93
2022-08-23T15:01:47.360Z,38.93
2022-08-23T15:04:18.253Z,38.26
2022-08-23T15:07:06.903Z,38.03
2022-08-23T15:09:32.273Z,38.36
2022-08-23T15:14:46.496Z,37.92
2022-08-23T15:17:13.716Z,37.45
2022-08-23T15:19:40.436Z,37.41
2022-08-23T15:22:18.356Z,37.18
2022-08-23T15:24:47.766Z,36.67
2022-08-23T15:27:14.329Z,36.76
2022-08-23T15:29:40.792Z,35.10
2022-08-23T15:32:07.811Z,33.20
2022-08-23T15:34:36.937Z,33.16
2022-08-23T15:37:06.644Z,33.37
2022-08-23T15:39:33.270Z,33.38
2022-08-23T15:41:59.738Z,33.60
2022-08-23T15:44:26.283Z,33.47
2022-08-23T15:46:54.599Z,33.71
2022-08-23T15:49:23.828Z,32.94
2022-08-23T15:51:50.420Z,32.80
2022-08-23T15:54:16.910Z,32.80
2022-08-23T15:56:48.388Z,32.41
2022-08-23T15:59:18.409Z,32.98
2022-08-23T16:01:45.482Z,33.88
2022-08-23T16:04:12.322Z,33.01
2022-08-23T16:06:40.096Z,32.41
2022-08-23T16:09:12.586Z,31.39
2022-08-23T16:11:43.025Z,32.08
2022-08-23T16:14:09.779Z,32.87
2022-08-23T16:16:40.726Z,33.19
2022-08-23T16:19:09.027Z,33.46
2022-08-23T16:21:36.078Z,33.80
2022-08-23T16:24:02.838Z,33.68
2022-08-23T16:26:34.685Z,34.16
2022-08-23T16:29:03.448Z,34.38
2022-08-23T16:31:38.572Z,32.78
2022-08-23T16:34:09.619Z,33.00
2022-08-23T16:36:36.358Z,32.77
2022-08-23T16:39:04.445Z,34.17
2022-08-23T16:41:31.040Z,32.93
2022-08-23T16:43:57.653Z,33.35
2022-08-23T16:46:24.530Z,33.49
2022-08-23T16:48:51.147Z,33.81
2022-08-23T16:51:18.121Z,33.46
2022-08-23T16:53:44.588Z,32.95
2022-08-23T16:56:22.257Z,32.04
2022-08-23T16:58:48.741Z,31.78
2022-08-23T17:01:19.574Z,31.25
2022-08-23T17:03:46.433Z,31.08
2022-08-23T17:06:13.151Z,30.34
2022-08-23T17:08:39.731Z,30.34
2022-08-23T17:11:09.892Z,29.92
2022-08-23T17:13:36.292Z,28.95
2022-08-23T17:16:03.077Z,30.01
2022-08-23T17:18:29.746Z,30.55
2022-08-23T17:20:56.330Z,30.36
2022-08-23T17:23:25.930Z,30.73
2022-08-23T17:25:52.430Z,30.70
2022-08-23T17:28:19.055Z,31.44
2022-08-23T17:30:45.577Z,31.95
2022-08-23T17:33:12.116Z,32.41
2022-08-23T17:35:39.708Z,32.86
2022-08-23T17:38:07.172Z,33.59
2022-08-23T17:40:38.039Z,33.97
2022-08-23T17:43:06.228Z,34.79
2022-08-23T17:45:43.341Z,35.42
2022-08-23T17:48:11.284Z,36.13
2022-08-23T17:50:39.337Z,36.60
2022-08-23T17:53:06.817Z,37.77
2022-08-23T17:55:34.980Z,38.62
2022-08-23T17:58:03.989Z,39.30
2022-08-23T18:00:32.422Z,39.56
2022-08-23T18:02:59.295Z,40.58
2022-08-23T18:05:27.384Z,40.81
2022-08-23T18:07:53.905Z,41.55
2022-08-23T18:10:20.705Z,41.91
2022-08-23T18:12:47.307Z,42.40
2022-08-23T18:15:13.862Z,43.23
2022-08-23T18:17:40.523Z,43.93
2022-08-23T18:20:10.014Z,44.71
2022-08-23T18:22:37.343Z,45.26
2022-08-23T18:25:05.748Z,45.69
2022-08-23T18:27:50.747Z,46.66
2022-08-23T18:30:17.466Z,48.92
2022-08-23T18:32:44.753Z,50.21
2022-08-23T18:35:11.367Z,50.92
2022-08-23T18:37:37.984Z,51.81
2022-08-23T18:40:09.217Z,52.23
2022-08-23T18:42:36.662Z,52.78
2022-08-23T18:45:04.487Z,52.17
2022-08-23T18:47:30.948Z,51.88
2022-08-23T18:49:57.542Z,52.35
2022-08-23T18:52:24.111Z,52.82
2022-08-23T18:54:50.557Z,52.79
2022-08-23T18:57:17.826Z,53.18
2022-08-23T18:59:44.435Z,53.39
2022-08-23T19:02:11.361Z,53.91
2022-08-23T19:04:37.951Z,53.87
2022-08-23T19:07:05.108Z,53.73
2022-08-23T19:09:31.591Z,53.83
2022-08-23T19:12:00.238Z,54.18
2022-08-23T19:14:28.153Z,54.43
2022-08-23T19:16:55.197Z,54.65
2022-08-23T19:19:22.960Z,55.06
2022-08-23T19:21:50.219Z,54.91
2022-08-23T19:24:17.393Z,55.33
2022-08-23T19:26:47.451Z,55.18
2022-08-23T19:29:14.887Z,55.63
2022-08-23T19:31:47.771Z,55.85
2022-08-23T19:34:16.694Z,56.02
2022-08-23T19:36:47.368Z,56.02
2022-08-23T19:39:17.699Z,56.35
2022-08-23T19:41:44.773Z,56.79
2022-08-23T19:44:11.641Z,57.13
2022-08-23T19:46:42.077Z,57.09
2022-08-23T19:49:09.832Z,57.59
2022-08-23T19:51:36.655Z,57.32
2022-08-23T19:54:04.947Z,57.36
2022-08-23T19:56:50.444Z,58.39
2022-08-23T19:59:21.637Z,58.52
2022-08-23T20:01:49.732Z,58.83
2022-08-23T20:04:17.315Z,59.09
2022-08-23T20:06:43.852Z,59.51
2022-08-23T20:09:10.419Z,60.06
2022-08-23T20:11:37.143Z,60.47
2022-08-23T20:14:05.398Z,61.11
2022-08-23T20:16:32.762Z,61.50
2022-08-23T20:19:00.498Z,62.18
2022-08-23T20:21:27.636Z,62.55
2022-08-23T20:24:06.322Z,63.00
2022-08-23T20:26:34.493Z,63.15
2022-08-23T20:29:03.995Z,63.56
2022-08-23T20:31:35.009Z,63.96
2022-08-23T20:34:02.065Z,64.12
2022-08-23T20:36:29.247Z,64.50
2022-08-23T20:39:00.409Z,64.94
2022-08-23T20:41:29.615Z,65.70
2022-08-23T20:43:56.648Z,66.34
2022-08-23T20:46:23.257Z,66.66
2022-08-23T20:48:51.633Z,67.22
2022-08-23T20:51:19.473Z,67.80
2022-08-23T20:53:46.828Z,67.96
2022-08-23T20:56:13.472Z,68.90
2022-08-23T20:58:40.304Z,68.91
2022-08-23T21:01:09.336Z,69.60
2022-08-23T21:03:38.257Z,69.98
2022-08-23T21:06:20.158Z,71.13
2022-08-23T21:08:53.986Z,71.51
2022-08-23T21:11:21.900Z,72.08
2022-08-23T21:13:48.664Z,72.54
2022-08-23T21:16:16.779Z,72.73
2022-08-23T21:18:43.740Z,73.42
2022-08-23T21:21:10.732Z,73.95
2022-08-23T21:23:37.916Z,74.12
2022-08-23T21:26:05.705Z,75.29
2022-08-23T21:28:32.766Z,75.13
2022-08-23T21:31:12.584Z,75.82
2022-08-23T21:33:40.580Z,75.89
2022-08-23T21:36:08.148Z,76.07
2022-08-23T21:38:34.764Z,76.32
2022-08-23T21:41:05.091Z,77.26
2022-08-23T21:43:32.829Z,77.86
2022-08-23T21:45:59.435Z,78.70
2022-08-23T21:48:26.088Z,79.26
2022-08-23T21:50:54.088Z,79.67
2022-08-23T21:53:20.684Z,79.50
2022-08-23T21:55:47.145Z,80.26
2022-08-23T21:58:13.987Z,80.57
2022-08-23T22:00:41.255Z,81.15
2022-08-23T22:03:09.082Z,80.80
2022-08-23T22:05:40.538Z,81.64
2022-08-23T22:08:07.071Z,81.74
2022-08-23T22:10:36.996Z,82.17
2022-08-23T22:13:05.555Z,82.67
2022-08-23T22:15:33.208Z,83.50
2022-08-23T22:18:00.622Z,84.25
2022-08-23T22:20:28.488Z,84.45
2022-08-23T22:22:55.014Z,84.38
2022-08-23T22:25:21.544Z,84.63
2022-08-23T22:27:48.047Z,84.20
2022-08-23T22:30:15.612Z,84.27
2022-08-23T22:32:42.776Z,84.96
2022-08-23T22:35:11.390Z,84.82
2022-08-23T22:37:49.429Z,84.60
2022-08-23T22:40:25.240Z,84.55
2022-08-23T22:42:51.756Z,85.22
2022-08-23T22:45:19.010Z,85.86
2022-08-23T22:47:45.516Z,86.04
2022-08-23T22:50:12.437Z,86.05
2022-08-23T22:52:40.360Z,87.28
2022-08-23T22:55:07.138Z,88.85
2022-08-23T22:57:33.679Z,92.21
2022-08-23T23:00:05.792Z,94.22
2022-08-23T23:02:37.785Z,95.34
2022-08-23T23:05:05.234Z,96.98
2022-08-23T23:07:50.236Z,96.88
2022-08-23T23:10:16.978Z,97.48
2022-08-23T23:12:43.424Z,98.04
2022-08-23T23:15:10.215Z,97.27
2022-08-23T23:17:36.710Z,96.86
2022-08-23T23:20:23.324Z,96.63
2022-08-23T23:22:51.157Z,96.63
2022-08-23T23:25:17.888Z,96.40
2022-08-23T23:27:45.060Z,96.00
2022-08-23T23:30:11.921Z,95.80
2022-08-23T23:32:38.605Z,96.39
2022-08-23T23:35:07.349Z,96.72
2022-08-23T23:37:33.803Z,97.19
2022-08-23T23:40:00.418Z,97.02
2022-08-23T23:42:27.007Z,96.63
2022-08-23T23:44:53.504Z,96.80
2022-08-23T23:47:20.030Z,96.70
2022-08-23T23:49:47.332Z,95.87
2022-08-23T23:52:13.822Z,96.43
2022-08-23T23:54:41.210Z,96.71
2022-08-23T23:57:08.072Z,97.03
2022-08-23T23:59:35.052Z,97.03
